ADDS TAF Data INFO
IDs: Format: Raw Decoded Include METARs

Data at: 1520 UTC 19 Jan 2018

KIWA 191447Z 07006KT 45SM FEW250 05/M03 A3005

KIWA 191141Z 1912/2012 13008KT P6SM SCT250
  FM192200 23006KT P6SM SCT250
  FM200400 12010KT P6SM BKN250 AMD LTD TO CLD VIS AND WIND TIL 191300